To NAV CANADA Home Page Login to a new session Search on AWWS site Feedback and Comments Disclaimer Vers la page française équivalente Tips FAQ What's new on the site To the Forecasts and Observations / NOTAM section To "File a Flight Plan" website Publications and other links Update of the User's profile FIC Telephone Numbers My Weather Data Folder Route Weather Data Regional Weather Data Local Weather Data To the Forecasts and Observations / NOTAM section
Request Generated 01/21/2017 at 02:02:57 UTC . Weather information available at that time is displayed.

METAR/TAF

TALOYOAK/NU    

METAR CYYH 210100Z CCA 06012KT 15SM IC DRSN FEW210 M29/M32 A3016 RMK
CI2 OCNL DRSN SLP221=
METAR CYYH 210100Z 06012KT 15SM IC FEW210 M29/M32 A3016 RMK CI2
SLP221=
METAR CYYH 210000Z 06012KT 15SM IC FEW080 FEW210 M29/M33 A3018 RMK
AC1CI2 AC TR PRESFR SLP228=
METAR CYYH 202300Z 02005KT 15SM IC FEW040 FEW080 SCT210 M31/M35 A3021
RMK SC1AC1CI2 SC TR FROIN SLP239=

TAF CYYH 202338Z 2100/2112 02005KT P6SM IC FEW040 FEW080
BECMG 2101/2103 13012G22KT
FM210600 13012G22KT P6SM IC SCT040 TEMPO 2106/2110 3SM -SN BKN040
FM211000 15015G25KT P6SM -SN SCT020 OVC040 TEMPO 2110/2112 2SM
-SN BLSN OVC020
RMK NXT FCST BY 210600Z=
Your time UTC time
Weather data provided by Environment Canada and NAV CANADA